Time;durP1;ratioP1;P1;durP2;ratioP2;P2;SDS_P1;SDS_P2;PMS_P1;PMS_P2;Temp;Humidity;BMP_temperature;BMP_pressure;BME280_temperature;BME280_humidity;BME280_pressure;Samples;Min_cycle;Max_cycle;Signal;HPM_P1;HPM_P2
2023/10/22 00:00:00;;;;;;;1.17;0.43;;;;;;;12.39;96.90;99330.19;7357311;19;21136;-68
2023/10/22 00:02:27;;;;;;;1.98;0.40;;;;;;;12.39;96.91;99329.41;7356745;19;20066;-66
2023/10/22 00:04:54;;;;;;;1.67;0.60;;;;;;;12.37;96.94;99345.44;7356616;19;20039;-68
2023/10/22 00:07:20;;;;;;;2.78;0.47;;;;;;;12.37;96.47;99341.97;7358581;19;20824;-67
2023/10/22 00:09:47;;;;;;;1.15;0.40;;;;;;;12.38;96.47;99346.25;7358374;19;20018;-67
2023/10/22 00:12:14;;;;;;;3.80;0.50;;;;;;;12.37;96.40;99350.72;7355792;19;20104;-68
2023/10/22 00:14:41;;;;;;;3.63;0.55;;;;;;;12.35;96.51;99350.09;7355241;19;20019;-66
2023/10/22 00:17:08;;;;;;;3.60;0.90;;;;;;;12.34;96.76;99360.88;7357397;19;20015;-67
2023/10/22 00:19:35;;;;;;;1.55;0.47;;;;;;;12.32;96.28;99368.16;7354220;19;20720;-67
2023/10/22 00:22:02;;;;;;;2.70;0.55;;;;;;;12.30;95.99;99370.16;7357374;19;20020;-68
2023/10/22 00:24:29;;;;;;;2.67;0.60;;;;;;;12.26;95.96;99374.22;7356461;19;20018;-67
2023/10/22 00:26:57;;;;;;;3.45;0.40;;;;;;;12.26;95.73;99375.03;7356204;19;20025;-67
2023/10/22 00:29:24;;;;;;;3.42;0.65;;;;;;;12.25;96.09;99381.31;7359278;19;21221;-67
2023/10/22 00:31:51;;;;;;;1.88;0.50;;;;;;;12.21;96.26;99387.19;7355824;19;20033;-67
2023/10/22 00:34:18;;;;;;;3.92;0.68;;;;;;;12.23;96.79;99382.53;7350822;19;20780;-67
2023/10/22 00:36:46;;;;;;;3.72;1.10;;;;;;;12.24;96.83;99384.16;7355071;19;20011;-67
2023/10/22 00:39:12;;;;;;;2.15;0.50;;;;;;;12.26;97.53;99382.94;7357388;19;21715;-67
2023/10/22 00:41:39;;;;;;;2.78;0.50;;;;;;;12.26;96.78;99392.69;7358115;19;20018;-67
2023/10/22 00:44:07;;;;;;;3.03;0.40;;;;;;;12.26;95.93;99397.94;7355988;19;20002;-67
2023/10/22 00:46:34;;;;;;;1.17;0.50;;;;;;;12.25;96.17;99389.22;7357143;19;20029;-68
2023/10/22 00:49:01;;;;;;;1.90;0.52;;;;;;;12.25;96.28;99396.31;7352892;19;20029;-67
2023/10/22 00:51:28;;;;;;;1.42;0.50;;;;;;;12.22;96.64;99392.28;7357155;19;20022;-67
2023/10/22 00:53:56;;;;;;;1.13;0.32;;;;;;;12.20;96.01;99404.84;7353295;19;20014;-67
2023/10/22 00:56:23;;;;;;;1.58;0.50;;;;;;;12.20;96.38;99401.38;7355291;19;20524;-67
2023/10/22 00:58:50;;;;;;;2.20;0.50;;;;;;;12.19;95.93;99397.94;7356832;19;20018;-66
2023/10/22 01:01:18;;;;;;;4.90;0.50;;;;;;;12.16;95.92;99398.34;7355812;19;20379;-67
2023/10/22 01:03:45;;;;;;;5.30;0.50;;;;;;;12.15;95.23;99409.06;7357803;19;20013;-69
2023/10/22 01:06:13;;;;;;;3.15;0.52;;;;;;;12.10;95.10;99406.22;7358489;19;20090;-67
2023/10/22 01:08:41;;;;;;;2.65;0.50;;;;;;;12.10;95.66;99420.22;7356643;19;20018;-66
2023/10/22 01:11:10;;;;;;;1.30;0.40;;;;;;;12.12;96.38;99417.38;7355762;19;20010;-68
2023/10/22 01:13:38;;;;;;;3.45;0.60;;;;;;;12.09;96.14;99423.84;7349006;19;20955;-68
2023/10/22 01:16:09;;;;;;;1.10;0.60;;;;;;;12.12;96.59;99423.47;7358254;19;21091;-67
2023/10/22 01:18:36;;;;;;;1.40;0.50;;;;;;;12.12;96.15;99430.56;7346818;19;20042;-67
2023/10/22 01:21:03;;;;;;;2.55;0.60;;;;;;;12.05;96.06;99430.53;7352938;19;20038;-68
2023/10/22 01:23:37;;;;;;;2.03;0.40;;;;;;;12.04;96.42;99431.53;7353972;19;20018;-67
2023/10/22 01:26:06;;;;;;;2.90;0.60;;;;;;;12.03;96.71;99437.03;7356276;19;20022;-67
2023/10/22 01:28:34;;;;;;;5.10;0.63;;;;;;;12.00;96.53;99448.78;7354614;19;20081;-67
2023/10/22 01:31:10;;;;;;;2.33;0.50;;;;;;;11.99;96.13;99447.13;7357342;19;20749;-68
2023/10/22 01:33:37;;;;;;;2.53;0.55;;;;;;;11.96;96.07;99452.81;7348332;19;20013;-67
2023/10/22 01:36:04;;;;;;;2.35;0.50;;;;;;;11.92;95.61;99456.84;7351956;19;22855;-66
2023/10/22 01:38:32;;;;;;;1.70;0.60;;;;;;;11.89;95.60;99465.13;7352609;19;20030;-67
2023/10/22 01:40:58;;;;;;;1.58;0.80;;;;;;;11.86;96.50;99455.81;7355673;19;19999;-68
2023/10/22 01:43:26;;;;;;;1.50;0.40;;;;;;;11.87;97.37;99452.16;7354165;19;20212;-67
2023/10/22 01:45:53;;;;;;;3.42;0.47;;;;;;;11.86;97.13;99457.63;7350924;19;20102;-67
2023/10/22 01:48:20;;;;;;;2.03;0.50;;;;;;;11.82;96.67;99473.03;7351297;19;20728;-67
2023/10/22 01:50:47;;;;;;;2.63;0.50;;;;;;;11.82;96.27;99475.66;7355965;19;20014;-67
2023/10/22 01:53:14;;;;;;;3.67;0.70;;;;;;;11.82;96.42;99488.84;7351365;19;20022;-66
2023/10/22 01:55:41;;;;;;;4.80;0.95;;;;;;;11.84;96.92;99499.16;7355431;19;20010;-67
2023/10/22 01:58:08;;;;;;;4.63;0.80;;;;;;;11.76;96.37;99494.06;7353890;19;20010;-67
2023/10/22 02:00:38;;;;;;;3.20;0.70;;;;;;;11.72;96.62;99496.25;7353411;19;20011;-67
2023/10/22 02:03:06;;;;;;;2.70;0.60;;;;;;;11.69;96.69;99493.97;7351791;19;20019;-67
2023/10/22 02:05:34;;;;;;;3.85;0.77;;;;;;;11.68;96.73;99496.81;7354807;19;20030;-66
2023/10/22 02:08:02;;;;;;;2.58;0.70;;;;;;;11.65;96.52;99495.38;7349791;19;20014;-66
2023/10/22 02:10:30;;;;;;;1.48;0.55;;;;;;;11.58;96.70;99491.88;7348177;19;20024;-67
2023/10/22 02:12:57;;;;;;;15.88;1.40;;;;;;;11.62;98.21;99497.59;7357783;19;20015;-67
2023/10/22 02:15:26;;;;;;;3.38;0.85;;;;;;;11.61;98.19;99496.78;7361488;19;20861;-68
2023/10/22 02:17:54;;;;;;;1.67;0.65;;;;;;;11.59;98.42;99496.94;7361032;19;20048;-67
2023/10/22 02:20:21;;;;;;;2.70;0.73;;;;;;;11.62;98.56;99508.94;7357841;19;20030;-67
2023/10/22 02:22:59;;;;;;;2.70;0.80;;;;;;;11.62;97.91;99508.94;7359982;19;20663;-66
2023/10/22 02:25:26;;;;;;;3.75;0.80;;;;;;;11.65;98.34;99519.09;7361355;19;20973;-67
2023/10/22 02:27:53;;;;;;;6.75;0.60;;;;;;;11.68;98.90;99516.09;7358884;19;20475;-68
2023/10/22 02:30:20;;;;;;;5.90;0.60;;;;;;;11.71;99.17;99514.88;7360656;19;20031;-67
2023/10/22 02:32:47;;;;;;;1.27;0.50;;;;;;;11.76;99.49;99531.75;7359699;19;20105;-67
2023/10/22 02:35:14;;;;;;;3.17;0.70;;;;;;;11.76;98.51;99526.50;7359271;19;20659;-67
2023/10/22 02:37:41;;;;;;;4.20;0.50;;;;;;;11.75;97.79;99531.94;7356337;19;20022;-67
2023/10/22 02:40:09;;;;;;;3.45;0.82;;;;;;;11.76;97.92;99530.94;7359541;19;20018;-67
2023/10/22 02:42:36;;;;;;;2.08;0.52;;;;;;;11.76;97.31;99537.03;7361564;19;20021;-68
2023/10/22 02:45:05;;;;;;;1.85;0.70;;;;;;;11.78;97.32;99540.31;7359118;19;20018;-67
2023/10/22 02:47:33;;;;;;;6.38;0.80;;;;;;;11.81;97.71;99539.91;7356563;19;20014;-67
2023/10/22 02:50:00;;;;;;;1.95;0.70;;;;;;;11.78;97.23;99550.84;7358748;19;20022;-69
2023/10/22 02:52:27;;;;;;;3.45;1.15;;;;;;;11.75;96.86;99545.13;7359390;19;20646;-67
2023/10/22 02:54:54;;;;;;;8.05;1.02;;;;;;;11.73;96.59;99558.50;7359121;19;20107;-68
2023/10/22 02:57:21;;;;;;;3.92;0.70;;;;;;;11.72;96.72;99553.41;7361826;19;20497;-67
2023/10/22 02:59:48;;;;;;;3.90;1.50;;;;;;;11.71;97.31;99562.31;7356901;19;20048;-67
2023/10/22 03:02:15;;;;;;;2.47;0.80;;;;;;;11.78;98.10;99560.56;7361430;19;20462;-68
2023/10/22 03:04:42;;;;;;;2.05;0.70;;;;;;;11.78;97.66;99569.28;7354889;19;20018;-67
2023/10/22 03:07:09;;;;;;;2.65;0.80;;;;;;;11.77;97.00;99578.19;7358693;19;20019;-67
2023/10/22 03:09:36;;;;;;;3.83;0.70;;;;;;;11.75;96.83;99574.94;7354602;19;20010;-67
2023/10/22 03:12:03;;;;;;;3.55;0.85;;;;;;;11.75;96.61;99582.00;7356445;19;20010;-67
2023/10/22 03:14:30;;;;;;;4.95;2.03;;;;;;;11.76;97.12;99583.66;7359200;19;20015;-67
2023/10/22 03:16:57;;;;;;;4.88;0.93;;;;;;;11.78;97.61;99592.19;7360983;19;20027;-66
2023/10/22 03:19:24;;;;;;;2.67;0.80;;;;;;;11.81;97.95;99592.63;7356167;19;20018;-67
2023/10/22 03:21:51;;;;;;;5.63;0.63;;;;;;;11.81;97.46;99597.88;7361203;19;20258;-67
2023/10/22 03:24:18;;;;;;;1.80;0.60;;;;;;;11.79;96.78;99596.44;7370292;19;20556;-67
2023/10/22 03:26:46;;;;;;;4.40;0.50;;;;;;;11.71;95.41;99596.56;7360984;19;20010;-66
2023/10/22 03:29:13;;;;;;;4.05;0.50;;;;;;;11.67;95.83;99595.31;7359444;19;20038;-67
2023/10/22 03:31:40;;;;;;;4.25;1.02;;;;;;;11.69;97.18;99599.38;7359054;19;20032;-67
2023/10/22 03:34:07;;;;;;;1.20;0.60;;;;;;;11.73;97.71;99603.31;7353045;19;20047;-67
2023/10/22 03:36:38;;;;;;;5.50;0.70;;;;;;;11.75;97.86;99611.81;7357452;19;20007;-68
2023/10/22 03:39:08;;;;;;;2.30;0.60;;;;;;;11.71;97.38;99607.09;7353478;19;20021;-67
2023/10/22 03:41:35;;;;;;;5.25;0.60;;;;;;;11.68;96.62;99616.22;7360993;19;20113;-67
2023/10/22 03:44:02;;;;;;;1.48;0.50;;;;;;;11.69;96.97;99619.63;7355691;19;20017;-66
2023/10/22 03:46:32;;;;;;;4.97;0.80;;;;;;;11.69;97.57;99620.44;7358667;19;20022;-68
2023/10/22 03:48:59;;;;;;;3.38;0.50;;;;;;;11.69;97.56;99640.72;7354275;19;20018;-67
2023/10/22 03:51:26;;;;;;;4.93;0.70;;;;;;;11.68;97.97;99645.19;7358272;19;21152;-67
2023/10/22 03:53:53;;;;;;;5.22;0.82;;;;;;;11.66;97.89;99646.38;7354740;19;20798;-67
2023/10/22 03:56:20;;;;;;;3.03;0.70;;;;;;;11.66;98.25;99652.47;7360690;19;20006;-69
2023/10/22 03:58:51;;;;;;;3.67;0.50;;;;;;;11.65;98.08;99650.00;7357545;19;20026;-67
2023/10/22 04:01:18;;;;;;;3.45;0.60;;;;;;;11.62;97.83;99653.03;7359971;19;20023;-69
2023/10/22 04:03:45;;;;;;;2.65;0.50;;;;;;;11.60;98.05;99658.47;7353720;19;20047;-67
2023/10/22 04:06:12;;;;;;;4.38;0.50;;;;;;;11.61;98.02;99659.28;7354144;19;20017;-68
2023/10/22 04:08:39;;;;;;;4.30;0.70;;;;;;;11.57;98.16;99670.22;7357638;19;20497;-68
2023/10/22 04:11:06;;;;;;;2.40;0.50;;;;;;;11.58;98.03;99671.00;7359626;19;20010;-67
2023/10/22 04:13:33;;;;;;;2.97;0.60;;;;;;;11.56;98.04;99670.41;7353891;19;20022;-68
2023/10/22 04:16:00;;;;;;;5.75;1.33;;;;;;;11.54;98.31;99669.75;7354916;19;20018;-68
2023/10/22 04:18:27;;;;;;;3.22;0.50;;;;;;;11.54;98.24;99681.13;7354691;19;20030;-66
2023/10/22 04:20:54;;;;;;;3.28;1.13;;;;;;;11.53;98.18;99676.03;7354933;19;20018;-67
2023/10/22 04:23:21;;;;;;;5.70;0.70;;;;;;;11.49;98.53;99680.88;7354666;19;20074;-66
2023/10/22 04:25:48;;;;;;;3.03;0.60;;;;;;;11.47;98.07;99679.44;7357869;19;20022;-66
2023/10/22 04:28:15;;;;;;;4.15;0.70;;;;;;;11.46;98.57;99683.06;7356999;19;20018;-67
2023/10/22 04:30:46;;;;;;;2.83;0.60;;;;;;;11.41;98.75;99686.25;7358324;19;20200;-67
2023/10/22 04:33:13;;;;;;;4.45;0.98;;;;;;;11.39;98.96;99682.16;7357170;19;20022;-67
2023/10/22 04:35:40;;;;;;;4.22;0.70;;;;;;;11.40;99.83;99695.16;7358527;19;20046;-67
2023/10/22 04:38:07;;;;;;;2.55;0.52;;;;;;;11.41;99.17;99688.88;7355656;19;21407;-67
2023/10/22 04:40:35;;;;;;;2.55;0.57;;;;;;;11.41;99.16;99704.69;7350514;19;20013;-69
2023/10/22 04:43:02;;;;;;;2.28;0.50;;;;;;;11.40;99.06;99702.25;7357258;19;20074;-67
2023/10/22 04:45:29;;;;;;;3.78;0.70;;;;;;;11.35;98.91;99705.44;7354791;19;20553;-67
2023/10/22 04:47:57;;;;;;;3.92;0.57;;;;;;;11.37;99.02;99708.72;7352527;19;20555;-68
2023/10/22 04:50:24;;;;;;;2.25;0.60;;;;;;;11.39;99.67;99713.75;7356088;19;20046;-67
2023/10/22 04:52:52;;;;;;;4.45;0.88;;;;;;;11.38;99.59;99720.03;7356038;19;20038;-67
2023/10/22 04:55:19;;;;;;;2.10;0.60;;;;;;;11.37;99.24;99721.06;7358182;19;20474;-67
2023/10/22 04:57:47;;;;;;;8.43;1.98;;;;;;;11.35;98.97;99717.78;7356401;19;20102;-67
2023/10/22 05:00:14;;;;;;;9.00;2.58;;;;;;;11.32;98.76;99723.44;7357302;19;20021;-66
2023/10/22 05:02:41;;;;;;;7.13;1.50;;;;;;;11.30;99.23;99728.88;7355647;19;20014;-66
2023/10/22 05:05:09;;;;;;;1.83;0.70;;;;;;;11.33;99.97;99739.03;7353703;19;20467;-68
2023/10/22 05:07:36;;;;;;;3.53;0.57;;;;;;;11.29;99.73;99748.31;7356028;19;20019;-67
2023/10/22 05:10:04;;;;;;;4.70;0.70;;;;;;;11.29;99.85;99745.66;7354297;19;20006;-67
2023/10/22 05:12:31;;;;;;;6.70;0.80;;;;;;;11.29;100.00;99743.03;7357329;19;20335;-66
2023/10/22 05:14:57;;;;;;;2.30;0.85;;;;;;;11.26;99.86;99738.16;7354819;19;20050;-68
2023/10/22 05:17:25;;;;;;;4.25;0.70;;;;;;;11.26;99.90;99739.97;7356929;19;20034;-67
2023/10/22 05:19:52;;;;;;;5.53;0.90;;;;;;;11.24;99.50;99740.13;7352354;19;20021;-67
2023/10/22 05:22:19;;;;;;;2.65;1.10;;;;;;;11.19;99.13;99745.13;7358271;19;20132;-67
2023/10/22 05:24:49;;;;;;;5.93;0.88;;;;;;;11.19;99.74;99744.31;7354498;19;20018;-69
2023/10/22 05:27:17;;;;;;;4.07;1.10;;;;;;;11.15;99.70;99749.97;7356365;19;20454;-68
2023/10/22 05:29:47;;;;;;;5.18;1.40;;;;;;;11.14;99.93;99768.56;7355196;19;20384;-66
2023/10/22 05:32:15;;;;;;;4.07;1.20;;;;;;;11.13;100.00;99759.84;7356214;19;20795;-69
2023/10/22 05:34:42;;;;;;;6.90;1.52;;;;;;;11.12;100.00;99754.78;7351016;19;20031;-66
2023/10/22 05:37:09;;;;;;;5.70;1.67;;;;;;;11.06;100.00;99752.88;7353810;19;20018;-67
2023/10/22 05:39:39;;;;;;;7.07;1.60;;;;;;;11.07;100.00;99760.56;7351019;19;20026;-67
2023/10/22 05:42:06;;;;;;;4.70;1.25;;;;;;;11.03;100.00;99775.09;7352502;19;20015;-67
2023/10/22 05:44:37;;;;;;;5.63;1.30;;;;;;;10.98;100.00;99785.34;7352438;19;20015;-67
2023/10/22 05:47:05;;;;;;;6.40;1.52;;;;;;;11.01;100.00;99786.81;7358303;19;20019;-67
2023/10/22 05:49:31;;;;;;;2.88;1.20;;;;;;;11.00;100.00;99785.19;7357244;19;20107;-68
2023/10/22 05:51:58;;;;;;;6.57;1.00;;;;;;;10.99;100.00;99797.53;7360134;19;20025;-67
2023/10/22 05:54:25;;;;;;;4.68;0.98;;;;;;;10.98;100.00;99800.31;7358236;19;20834;-68
2023/10/22 05:56:52;;;;;;;9.85;1.90;;;;;;;11.02;100.00;99812.16;7362323;19;20137;-67
2023/10/22 05:59:19;;;;;;;7.65;1.00;;;;;;;10.95;100.00;99808.59;7359789;19;20014;-67
2023/10/22 06:01:46;;;;;;;6.15;1.00;;;;;;;10.96;100.00;99812.88;7364861;19;20787;-68
2023/10/22 06:04:13;;;;;;;5.03;1.75;;;;;;;10.93;100.00;99811.41;7358388;19;20018;-67
2023/10/22 06:06:41;;;;;;;6.15;1.33;;;;;;;10.97;100.00;99814.50;7361794;19;20007;-67
2023/10/22 06:09:10;;;;;;;5.20;1.40;;;;;;;10.96;100.00;99818.13;7360202;19;20525;-68
2023/10/22 06:11:38;;;;;;;3.63;1.15;;;;;;;10.98;100.00;99827.47;7361782;19;20059;-68
2023/10/22 06:14:06;;;;;;;5.28;2.05;;;;;;;10.93;100.00;99823.75;7356999;19;20023;-68
2023/10/22 06:16:35;;;;;;;4.72;1.38;;;;;;;10.87;100.00;99841.06;7362452;19;20278;-68
2023/10/22 06:19:02;;;;;;;6.18;3.25;;;;;;;10.87;100.00;99842.91;7357188;19;20018;-67
2023/10/22 06:21:29;;;;;;;4.18;1.92;;;;;;;10.91;100.00;99852.06;7353836;19;20030;-67
2023/10/22 06:23:56;;;;;;;6.25;1.85;;;;;;;10.97;100.00;99861.88;7360611;19;20261;-67
2023/10/22 06:26:23;;;;;;;5.82;1.40;;;;;;;10.96;100.00;99868.97;7360498;19;20018;-67
2023/10/22 06:28:51;;;;;;;5.25;1.15;;;;;;;10.95;100.00;99871.75;7357704;19;20014;-67
2023/10/22 06:31:18;;;;;;;6.53;0.90;;;;;;;10.99;100.00;99868.59;7359371;19;20026;-67
2023/10/22 06:33:45;;;;;;;4.32;1.13;;;;;;;10.98;100.00;99866.94;7356604;19;20100;-67
2023/10/22 06:36:20;;;;;;;11.27;1.25;;;;;;;11.01;100.00;99882.41;7360689;19;20018;-67
2023/10/22 06:38:49;;;;;;;3.25;1.00;;;;;;;11.00;100.00;99877.31;7357938;19;20018;-67
2023/10/22 06:41:21;;;;;;;2.35;0.73;;;;;;;10.99;100.00;99896.72;7358790;19;20027;-68
2023/10/22 06:43:48;;;;;;;4.57;0.90;;;;;;;10.99;100.00;99880.94;7361335;19;20067;-68
2023/10/22 06:46:17;;;;;;;6.15;0.90;;;;;;;10.98;100.00;99885.38;7362401;19;20033;-67
2023/10/22 06:48:44;;;;;;;4.35;1.50;;;;;;;10.96;100.00;99895.28;7355696;19;20018;-67
2023/10/22 06:51:15;;;;;;;3.67;0.93;;;;;;;10.97;100.00;99894.25;7357704;19;20320;-66
2023/10/22 06:53:46;;;;;;;3.40;0.75;;;;;;;11.00;100.00;99907.09;7354316;19;20111;-67
2023/10/22 06:56:15;;;;;;;4.10;1.08;;;;;;;11.01;99.86;99903.47;7362560;19;20025;-67
2023/10/22 06:58:44;;;;;;;7.18;0.93;;;;;;;10.98;99.64;99906.44;7360506;19;20581;-67
2023/10/22 07:01:13;;;;;;;5.78;0.80;;;;;;;11.00;99.84;99906.25;7361475;19;20022;-68
2023/10/22 07:03:43;;;;;;;4.20;1.13;;;;;;;11.02;100.00;99912.97;7356617;19;20028;-68
2023/10/22 07:06:10;;;;;;;4.22;1.02;;;;;;;11.04;100.00;99915.44;7362583;19;20191;-67
2023/10/22 07:08:38;;;;;;;4.05;0.90;;;;;;;11.06;99.68;99924.81;7358483;19;20021;-66
2023/10/22 07:11:04;;;;;;;5.22;0.98;;;;;;;11.08;99.51;99927.22;7361617;19;20014;-67
2023/10/22 07:13:31;;;;;;;5.32;1.00;;;;;;;11.02;99.36;99938.50;7357705;19;20011;-67
2023/10/22 07:15:58;;;;;;;3.67;0.88;;;;;;;11.03;99.39;99935.66;7361854;19;20582;-67
2023/10/22 07:18:25;;;;;;;1.45;0.70;;;;;;;10.99;99.06;99934.38;7354915;19;20533;-67
2023/10/22 07:20:52;;;;;;;8.23;0.80;;;;;;;10.98;99.24;99943.28;7357851;19;20025;-66
2023/10/22 07:23:19;;;;;;;5.60;1.00;;;;;;;11.02;98.91;99949.81;7353445;19;20019;-66
2023/10/22 07:25:47;;;;;;;5.60;0.98;;;;;;;11.06;99.25;99951.13;7360065;19;20022;-66
2023/10/22 07:28:16;;;;;;;4.43;1.13;;;;;;;11.07;99.21;99958.00;7352205;19;20039;-66
2023/10/22 07:30:49;;;;;;;7.55;1.10;;;;;;;11.09;99.29;99958.66;7359971;19;20019;-68
2023/10/22 07:33:17;;;;;;;5.78;1.30;;;;;;;11.10;98.73;99957.66;7360051;19;20019;-67
2023/10/22 07:36:05;;;;;;;12.48;4.25;;;;;;;11.12;98.72;99960.91;7357220;19;20990;-68
2023/10/22 07:38:32;;;;;;;4.47;1.52;;;;;;;11.19;99.48;99963.66;7359184;19;20639;-67
2023/10/22 07:41:00;;;;;;;9.95;1.65;;;;;;;11.26;99.15;99975.13;7355593;19;20081;-67
2023/10/22 07:43:29;;;;;;;4.53;1.35;;;;;;;11.32;98.35;99978.88;7354585;19;20014;-67
2023/10/22 07:46:00;;;;;;;3.83;1.45;;;;;;;11.34;98.49;99980.31;7358820;19;20929;-67
2023/10/22 07:48:27;;;;;;;7.38;1.48;;;;;;;11.34;98.62;99982.94;7353409;19;20011;-67
2023/10/22 07:50:54;;;;;;;7.47;3.10;;;;;;;11.38;98.17;99983.41;7361060;19;20041;-68
2023/10/22 07:53:22;;;;;;;6.40;2.03;;;;;;;11.37;98.04;99987.88;7357320;19;20130;-67
2023/10/22 07:55:48;;;;;;;8.77;2.25;;;;;;;11.36;97.83;99988.88;7355916;19;20022;-66
2023/10/22 07:58:15;;;;;;;6.07;1.85;;;;;;;11.42;97.95;99995.25;7356816;19;20007;-66
2023/10/22 08:00:42;;;;;;;5.88;1.77;;;;;;;11.45;98.41;100002.78;7360530;19;20501;-67
2023/10/22 08:03:09;;;;;;;8.23;2.10;;;;;;;11.42;97.89;100000.50;7352425;19;20622;-67
2023/10/22 08:05:38;;;;;;;6.78;2.15;;;;;;;11.47;98.15;100001.63;7359126;19;20014;-67
2023/10/22 08:08:05;;;;;;;5.25;2.33;;;;;;;11.65;97.41;100001.25;7354047;19;20016;-67
2023/10/22 08:10:32;;;;;;;5.03;1.88;;;;;;;12.02;96.38;100003.03;7354133;19;20033;-67
2023/10/22 08:12:58;;;;;;;3.97;1.95;;;;;;;12.29;95.03;100020.03;7355214;19;20713;-66
2023/10/22 08:15:25;;;;;;;6.43;2.15;;;;;;;12.26;93.77;100017.75;7356905;19;20010;-66
2023/10/22 08:17:53;;;;;;;7.32;2.78;;;;;;;12.19;93.78;100022.91;7355379;19;20022;-66
2023/10/22 08:20:20;;;;;;;6.40;2.40;;;;;;;12.12;94.20;100022.03;7354747;19;20024;-66
2023/10/22 08:22:47;;;;;;;5.18;2.42;;;;;;;12.07;94.77;100024.41;7357340;19;20592;-67
2023/10/22 08:25:14;;;;;;;7.55;2.13;;;;;;;12.02;95.08;100013.59;7356606;19;20017;-67
2023/10/22 08:27:41;;;;;;;6.18;2.45;;;;;;;11.98;95.16;100026.31;7356022;19;20025;-67
2023/10/22 08:30:08;;;;;;;7.30;2.58;;;;;;;11.94;95.14;100035.56;7357501;19;20015;-67
2023/10/22 08:32:35;;;;;;;6.55;2.13;;;;;;;11.91;94.83;100035.94;7354536;19;20010;-67
2023/10/22 08:35:03;;;;;;;8.65;2.35;;;;;;;11.91;95.12;100043.84;7361970;19;20078;-67
2023/10/22 08:37:30;;;;;;;9.25;3.22;;;;;;;11.94;94.78;100050.56;7358990;19;20028;-67
2023/10/22 08:39:57;;;;;;;4.65;1.65;;;;;;;11.99;96.12;100056.13;7356011;19;20043;-67
2023/10/22 08:42:24;;;;;;;5.85;1.73;;;;;;;12.04;96.09;100053.75;7354175;19;20681;-66
2023/10/22 08:44:52;;;;;;;5.63;1.58;;;;;;;12.09;95.56;100054.03;7354302;19;20018;-66
2023/10/22 08:47:19;;;;;;;4.43;1.50;;;;;;;12.19;95.01;100054.56;7357701;19;20315;-67
2023/10/22 08:49:49;;;;;;;5.35;1.42;;;;;;;12.24;94.76;100052.19;7351181;19;20026;-66
2023/10/22 08:52:16;;;;;;;4.07;1.10;;;;;;;12.30;94.12;100053.28;7360255;19;21665;-67
2023/10/22 08:54:46;;;;;;;4.40;1.20;;;;;;;12.39;94.59;100062.78;7351888;19;20102;-68
2023/10/22 08:57:13;;;;;;;3.45;1.23;;;;;;;12.45;93.75;100059.38;7357750;19;20014;-68
2023/10/22 08:59:40;;;;;;;4.47;1.10;;;;;;;12.51;93.25;100071.03;7356428;19;20010;-66
2023/10/22 09:02:11;;;;;;;4.18;1.10;;;;;;;12.50;92.79;100056.19;7357299;19;20056;-67
2023/10/22 09:04:39;;;;;;;3.88;0.82;;;;;;;12.54;92.63;100071.50;7352568;19;20015;-68
2023/10/22 09:07:07;;;;;;;6.93;0.88;;;;;;;12.58;92.01;100062.19;7356429;19;20021;-66
2023/10/22 09:09:37;;;;;;;4.22;1.00;;;;;;;12.61;92.02;100066.28;7353658;19;20047;-67
2023/10/22 09:12:08;;;;;;;7.85;1.00;;;;;;;12.70;93.14;100073.91;7357022;19;20011;-67
2023/10/22 09:14:35;;;;;;;4.80;0.82;;;;;;;12.78;93.03;100078.25;7355629;19;20026;-67
2023/10/22 09:17:19;;;;;;;3.33;0.90;;;;;;;12.80;92.43;100092.06;7354540;19;20172;-66
2023/10/22 09:19:47;;;;;;;2.78;0.70;;;;;;;12.80;91.05;100084.97;7348347;19;20018;-68
2023/10/22 09:22:23;;;;;;;4.15;1.17;;;;;;;12.82;90.46;100084.81;7350944;19;20017;-67
2023/10/22 09:24:53;;;;;;;4.53;1.10;;;;;;;12.88;90.26;100085.88;7352290;19;20037;-67
2023/10/22 09:27:28;;;;;;;8.32;1.13;;;;;;;12.90;90.49;100089.16;7355562;19;20022;-67
2023/10/22 09:29:58;;;;;;;5.18;0.82;;;;;;;12.92;90.03;100095.88;7352922;19;20022;-67
2023/10/22 09:32:26;;;;;;;2.03;0.70;;;;;;;12.95;89.50;100105.28;7355339;19;20035;-67
2023/10/22 09:35:14;;;;;;;4.50;0.73;;;;;;;13.02;89.87;100104.31;7351604;19;20010;-67
2023/10/22 09:37:51;;;;;;;4.75;0.60;;;;;;;13.05;90.21;100096.06;7355242;19;20019;-66
2023/10/22 09:40:20;;;;;;;3.42;0.52;;;;;;;13.11;88.64;100099.75;7356085;19;20432;-66
2023/10/22 09:42:49;;;;;;;5.22;0.80;;;;;;;13.14;88.88;100105.50;7354464;19;20018;-68
2023/10/22 09:45:18;;;;;;;4.65;0.50;;;;;;;13.21;89.29;100105.56;7349788;19;20021;-67
2023/10/22 09:47:54;;;;;;;2.17;0.70;;;;;;;13.25;88.85;100107.66;7352399;19;20015;-66
2023/10/22 09:50:45;;;;;;;3.90;0.70;;;;;;;13.34;87.97;100110.19;7355131;19;20025;-67
2023/10/22 09:53:16;;;;;;;4.28;0.88;;;;;;;13.41;88.19;100117.16;7352027;19;20106;-67
2023/10/22 09:55:48;;;;;;;6.22;0.60;;;;;;;13.47;87.44;100111.13;7351844;19;20021;-67
2023/10/22 09:58:16;;;;;;;2.45;0.70;;;;;;;13.56;88.15;100114.47;7353991;19;21156;-66
2023/10/22 10:00:44;;;;;;;2.22;0.50;;;;;;;13.64;88.20;100112.50;7357116;19;20009;-67
2023/10/22 10:03:19;;;;;;;4.90;0.52;;;;;;;13.72;87.48;100116.81;7350964;19;20052;-67
2023/10/22 10:05:47;;;;;;;1.90;0.30;;;;;;;13.77;85.96;100124.19;7355273;19;20014;-68
2023/10/22 10:08:15;;;;;;;4.03;0.40;;;;;;;13.78;84.90;100131.94;7348075;19;20019;-67
2023/10/22 10:10:45;;;;;;;2.38;0.40;;;;;;;13.84;84.58;100125.06;7352969;19;20009;-66
2023/10/22 10:13:13;;;;;;;3.92;0.70;;;;;;;13.88;84.54;100131.59;7354541;19;20719;-67
2023/10/22 10:15:42;;;;;;;7.28;1.00;;;;;;;13.93;84.89;100134.47;7331488;19;20018;-66
2023/10/22 10:18:12;;;;;;;3.53;0.40;;;;;;;13.96;84.84;100139.41;7344985;19;20327;-68
2023/10/22 10:20:41;;;;;;;4.93;0.60;;;;;;;14.01;84.57;100137.00;7350441;19;20014;-66
2023/10/22 10:23:19;;;;;;;4.38;0.57;;;;;;;14.07;84.99;100152.09;7345598;19;21105;-68
2023/10/22 10:25:46;;;;;;;1.70;0.30;;;;;;;14.11;84.36;100156.00;7353276;19;20493;-66
2023/10/22 10:28:14;;;;;;;3.00;0.47;;;;;;;14.15;84.27;100149.31;7352492;19;20498;-67
2023/10/22 10:30:41;;;;;;;2.97;0.40;;;;;;;14.24;84.70;100147.34;7353615;19;20091;-68
2023/10/22 10:33:12;;;;;;;2.65;0.82;;;;;;;14.28;83.99;100152.03;7349795;19;20026;-68
2023/10/22 10:35:47;;;;;;;1.85;0.30;;;;;;;14.29;83.14;100155.50;7356334;19;20022;-67
2023/10/22 10:38:14;;;;;;;1.33;0.40;;;;;;;14.36;83.07;100153.72;7359224;19;20066;-67
2023/10/22 10:41:02;;;;;;;2.65;0.90;;;;;;;14.41;82.73;100154.00;7359092;19;21111;-67
2023/10/22 10:44:12;;;;;;;1.00;0.40;;;;;;;14.44;81.57;100150.94;7359591;19;20015;-67
2023/10/22 10:46:43;;;;;;;1.70;0.30;;;;;;;14.50;80.75;100158.94;7360417;19;20149;-67
2023/10/22 10:49:14;;;;;;;2.47;0.35;;;;;;;14.58;81.17;100167.75;7353783;19;20561;-68
2023/10/22 10:51:58;;;;;;;4.88;0.32;;;;;;;14.64;78.84;100170.41;7361854;19;20035;-68
2023/10/22 10:54:25;;;;;;;4.10;0.35;;;;;;;14.69;79.07;100169.81;7357797;19;20663;-67
2023/10/22 10:56:56;;;;;;;0.82;0.30;;;;;;;14.71;78.55;100176.59;7357386;19;20006;-67
2023/10/22 10:59:30;;;;;;;2.35;0.20;;;;;;;14.78;77.20;100176.63;7358363;19;20014;-68
2023/10/22 11:01:59;;;;;;;1.65;0.30;;;;;;;14.83;77.53;100182.16;7358900;19;20090;-68
2023/10/22 11:04:26;;;;;;;1.35;0.20;;;;;;;14.88;77.54;100177.09;7358885;19;20019;-68
2023/10/22 11:06:54;;;;;;;3.03;0.40;;;;;;;14.94;77.11;100184.22;7361192;19;20023;-67
2023/10/22 11:09:42;;;;;;;2.45;0.20;;;;;;;14.95;76.08;100180.56;7357726;19;20006;-67
2023/10/22 11:12:09;;;;;;;3.38;0.30;;;;;;;15.00;77.45;100183.44;7357295;19;20050;-69
2023/10/22 11:14:37;;;;;;;1.85;0.40;;;;;;;15.05;78.27;100185.50;7356398;19;20010;-67
2023/10/22 11:17:06;;;;;;;1.65;0.47;;;;;;;15.09;77.45;100179.59;7359083;19;20025;-69
2023/10/22 11:19:33;;;;;;;4.88;0.50;;;;;;;15.12;76.66;100181.03;7354858;19;20018;-68
2023/10/22 11:22:00;;;;;;;1.73;0.40;;;;;;;15.15;76.57;100192.06;7361264;19;20499;-68
2023/10/22 11:24:35;;;;;;;3.33;0.30;;;;;;;15.20;76.54;100188.81;7355659;19;20117;-67
2023/10/22 11:27:05;;;;;;;1.50;0.30;;;;;;;15.23;76.44;100191.09;7360564;19;20039;-67
2023/10/22 11:29:42;;;;;;;1.27;0.30;;;;;;;15.26;76.82;100188.03;7359192;19;20466;-66
2023/10/22 11:32:16;;;;;;;2.05;0.20;;;;;;;15.26;75.24;100180.06;7359361;19;20053;-66
2023/10/22 11:35:01;;;;;;;2.67;0.63;;;;;;;15.32;74.66;100187.22;7356458;19;20149;-67